Time;durP1;ratioP1;P1;durP2;ratioP2;P2;SDS_P1;SDS_P2;PMS_P1;PMS_P2;Temp;Humidity;BMP_temperature;BMP_pressure;BME280_temperature;BME280_humidity;BME280_pressure;Samples;Min_cycle;Max_cycle;Signal;HPM_P1;HPM_P2
2023/02/14 00:02:12;;;;;;;44.42;31.25;;;10.30;99.90;;;10.63;75.11;103316.41;5113424;28;20077;-66
2023/02/14 00:04:43;;;;;;;45.35;32.25;;;10.30;99.90;;;10.54;75.38;103320.47;5113454;28;20122;-66
2023/02/14 00:07:12;;;;;;;43.63;30.48;;;10.20;99.90;;;10.54;75.51;103325.78;5113658;28;20111;-67
2023/02/14 00:09:40;;;;;;;46.28;31.73;;;10.20;99.90;;;10.54;75.70;103324.03;5113278;28;20048;-66
2023/02/14 00:12:09;;;;;;;45.13;31.13;;;10.20;99.90;;;10.55;75.75;103315.22;5113004;28;20463;-67
2023/02/14 00:17:24;;;;;;;44.13;32.28;;;10.20;99.90;;;10.46;76.04;103284.91;5095303;28;20439;-66
2023/02/14 00:19:52;;;;;;;43.87;31.60;;;10.20;99.90;;;10.48;76.19;103314.97;5113228;28;20043;-66
2023/02/14 00:22:21;;;;;;;47.72;33.00;;;10.10;99.90;;;10.52;76.14;103307.22;5113101;28;20165;-64
2023/02/14 00:24:49;;;;;;;41.75;29.52;;;10.10;99.90;;;10.50;75.91;103308.00;5113125;28;20082;-65
2023/02/14 00:27:17;;;;;;;42.53;29.98;;;10.10;99.90;;;9.80;75.62;103183.81;5113320;28;20467;-65
2023/02/14 00:29:46;;;;;;;40.83;29.85;;;10.10;99.90;;;10.45;75.95;103299.88;5112970;28;20086;-64
2023/02/14 00:32:14;;;;;;;45.78;29.63;;;10.10;99.90;;;10.51;75.86;103301.88;5094931;28;20085;-65
2023/02/14 00:34:44;;;;;;;46.92;31.98;;;10.10;99.90;;;10.44;76.25;103302.47;5094699;28;20055;-65
2023/02/14 00:37:12;;;;;;;48.35;30.75;;;10.10;99.90;;;10.34;76.95;103295.06;5113219;28;20055;-64
2023/02/14 00:39:41;;;;;;;41.17;31.10;;;10.00;99.90;;;10.15;77.50;103296.16;5094795;28;20047;-64
2023/02/14 00:42:09;;;;;;;45.45;32.85;;;9.80;99.90;;;10.02;77.90;103285.94;5112837;28;20079;-65
2023/02/14 00:44:37;;;;;;;44.17;31.77;;;9.60;99.90;;;9.94;78.71;103285.69;5113148;28;20056;-64
2023/02/14 00:47:06;;;;;;;45.63;31.50;;;9.50;99.90;;;9.95;79.16;103284.81;5112776;28;20512;-65
2023/02/14 00:49:35;;;;;;;45.28;32.85;;;9.50;99.90;;;9.94;78.66;103285.69;5112803;28;20051;-65
2023/02/14 00:52:05;;;;;;;47.13;31.75;;;9.50;99.90;;;9.91;78.90;103277.59;5113033;28;20046;-64
2023/02/14 00:54:33;;;;;;;44.88;31.05;;;9.50;99.90;;;9.79;79.20;103263.94;5113064;28;20044;-64
2023/02/14 00:57:01;;;;;;;45.70;32.67;;;9.50;99.90;;;9.99;78.98;103284.09;5094744;28;20040;-65
2023/02/14 00:59:30;;;;;;;45.63;30.83;;;9.50;99.90;;;9.99;79.04;103277.88;5112866;28;20112;-65
2023/02/14 01:01:58;;;;;;;43.47;31.38;;;9.50;99.90;;;9.98;78.92;103282.31;5112695;28;20469;-65
2023/02/14 01:04:26;;;;;;;44.63;31.48;;;9.60;99.90;;;9.95;79.11;103278.63;5094611;28;20516;-65
2023/02/14 01:06:55;;;;;;;44.70;30.92;;;9.50;99.90;;;10.02;78.85;103278.94;5112725;28;20513;-64
2023/02/14 01:09:24;;;;;;;41.67;29.95;;;9.60;99.90;;;9.98;78.39;103279.66;5112645;28;20067;-65
2023/02/14 01:11:53;;;;;;;43.03;30.17;;;9.60;99.90;;;9.93;77.52;103270.63;5112900;28;20059;-65
2023/02/14 01:14:22;;;;;;;44.63;32.28;;;9.70;99.90;;;9.90;77.82;103252.03;5094504;28;20146;-64
2023/02/14 01:16:50;;;;;;;40.00;29.88;;;9.60;99.90;;;9.93;77.15;103268.00;5094604;28;20052;-65
2023/02/14 01:19:19;;;;;;;50.05;32.40;;;9.60;99.90;;;9.88;77.41;103269.59;5094531;28;20044;-65
2023/02/14 01:21:47;;;;;;;46.13;32.30;;;9.50;99.90;;;9.80;78.50;103268.38;5112798;28;20085;-64
2023/02/14 01:24:15;;;;;;;48.80;32.72;;;9.40;99.90;;;9.64;79.25;103268.66;5115677;28;20139;-65
2023/02/14 01:26:45;;;;;;;44.67;31.60;;;9.30;99.90;;;9.59;79.47;103264.94;5098301;28;20134;-64
2023/02/14 01:29:13;;;;;;;52.37;32.77;;;9.20;99.90;;;9.65;79.71;103269.56;5116376;28;20048;-65
2023/02/14 01:31:43;;;;;;;47.00;32.58;;;9.20;99.90;;;9.62;80.15;103270.34;5116552;28;20044;-65
2023/02/14 01:34:12;;;;;;;44.13;32.28;;;9.20;99.90;;;9.25;79.65;103184.38;5116526;28;20055;-65
2023/02/14 01:36:40;;;;;;;46.38;31.42;;;9.30;99.90;;;9.75;79.88;103263.78;5116354;28;20062;-64
2023/02/14 01:39:13;;;;;;;49.42;34.25;;;9.30;99.90;;;9.65;79.76;103261.63;5115966;28;20497;-64
2023/02/14 01:41:47;;;;;;;47.97;32.45;;;9.30;99.90;;;9.60;79.62;103266.72;5116397;28;20046;-64
2023/02/14 01:44:59;;;;;;;50.70;34.75;;;9.20;99.90;;;9.44;80.45;103255.53;5116310;28;20081;-64
2023/02/14 01:47:31;;;;;;;48.95;33.45;;;9.00;99.90;;;9.21;81.55;103270.50;5116045;28;20135;-64
2023/02/14 01:50:06;;;;;;;46.10;33.28;;;8.90;99.90;;;9.23;81.97;103263.53;5097949;28;20043;-64
2023/02/14 01:52:38;;;;;;;48.42;33.53;;;8.80;99.90;;;9.18;82.01;103257.16;5097820;28;20050;-65
2023/02/14 01:55:15;;;;;;;45.30;33.00;;;8.80;99.90;;;9.09;82.28;103260.34;5116146;28;20101;-64
2023/02/14 01:57:51;;;;;;;46.58;33.45;;;8.70;99.90;;;9.00;82.99;103261.72;5115791;28;20054;-64
2023/02/14 02:03:08;;;;;;;49.92;35.85;;;8.70;99.90;;;9.29;82.33;103260.22;5097702;28;20043;-64
2023/02/14 02:05:41;;;;;;;48.90;34.95;;;8.80;99.90;;;9.32;82.13;103261.25;5097572;28;20104;-64
2023/02/14 02:08:09;;;;;;;50.25;34.55;;;8.90;99.90;;;9.20;81.79;103260.75;5115517;28;20047;-64
2023/02/14 02:10:38;;;;;;;48.97;33.78;;;8.80;99.90;;;9.12;82.31;103250.75;5115745;28;20441;-64
2023/02/14 02:13:15;;;;;;;49.55;34.88;;;8.70;99.90;;;8.91;82.88;103232.28;5115729;28;20078;-64
2023/02/14 02:15:57;;;;;;;48.70;35.88;;;8.70;99.90;;;9.23;83.08;103266.19;5115708;28;20104;-64
2023/02/14 02:18:44;;;;;;;51.05;36.53;;;8.80;99.90;;;9.32;81.90;103268.25;5115711;28;20062;-64
2023/02/14 02:22:16;;;;;;;46.05;33.85;;;8.90;99.90;;;9.37;81.85;103258.78;5097405;28;20184;-65
2023/02/14 02:24:55;;;;;;;51.38;35.58;;;9.00;99.90;;;9.48;81.51;103262.75;5065103;28;20047;-64
2023/02/14 02:27:47;;;;;;;47.08;34.42;;;9.10;99.90;;;9.43;81.71;103261.63;5097254;28;20590;-64
2023/02/14 02:30:54;;;;;;;50.45;34.00;;;9.00;99.90;;;9.29;81.69;103253.19;5096908;28;20051;-65
2023/02/14 02:34:04;;;;;;;47.92;34.13;;;9.00;99.90;;;9.33;81.56;103257.75;5115435;28;20060;-64
2023/02/14 02:36:51;;;;;;;52.00;35.38;;;8.90;99.90;;;9.26;81.07;103261.00;5115020;28;20062;-64
2023/02/14 02:39:38;;;;;;;50.30;36.58;;;9.00;99.90;;;9.35;81.35;103249.91;5115196;28;20040;-64
2023/02/14 02:42:21;;;;;;;53.63;36.15;;;9.10;99.90;;;9.32;81.18;103245.41;5096939;28;20048;-64
2023/02/14 02:45:06;;;;;;;50.28;34.65;;;9.00;99.90;;;9.28;81.18;103247.84;5115138;28;20051;-65
2023/02/14 02:47:42;;;;;;;50.28;35.45;;;8.90;99.90;;;9.20;81.33;103236.09;5115176;28;20046;-64
2023/02/14 02:53:22;;;;;;;52.53;35.55;;;8.70;99.90;;;9.05;82.36;103233.75;5096635;28;20050;-64
2023/02/14 02:58:48;;;;;;;49.28;35.20;;;8.70;99.90;;;9.21;81.69;103240.53;5114843;28;20050;-64
2023/02/14 03:01:22;;;;;;;49.55;36.22;;;8.80;99.90;;;9.10;81.49;103234.81;5096466;28;20051;-64
2023/02/14 03:06:45;;;;;;;52.13;34.72;;;8.60;99.90;;;8.75;83.49;103238.69;5096427;28;20051;-64
2023/02/14 03:09:52;;;;;;;54.63;35.67;;;8.40;99.90;;;8.56;84.00;103229.94;5096364;28;20101;-64
2023/02/14 03:13:16;;;;;;;52.58;35.05;;;8.20;99.90;;;8.41;85.32;103238.13;5096327;28;20113;-64
2023/02/14 03:16:06;;;;;;;52.20;35.28;;;8.10;99.90;;;8.45;85.76;103239.16;5011766;28;20100;-65
2023/02/14 03:21:53;;;;;;;55.47;36.42;;;8.00;99.90;;;8.49;85.83;103241.09;5113345;28;20520;-64
2023/02/14 03:24:30;;;;;;;51.00;35.80;;;8.10;99.90;;;8.49;85.43;103238.47;5096094;28;20446;-64
2023/02/14 03:27:06;;;;;;;55.60;36.03;;;8.00;99.90;;;8.39;85.89;103229.25;5096082;28;20138;-64
2023/02/14 03:29:49;;;;;;;47.90;34.65;;;8.00;99.90;;;8.35;85.76;103227.31;5095998;28;20055;-64
2023/02/14 03:32:29;;;;;;;53.85;36.05;;;8.00;99.90;;;8.24;86.25;103239.13;5095924;28;20055;-65
2023/02/14 03:35:07;;;;;;;53.15;36.58;;;7.80;99.90;;;8.04;86.58;103237.34;5095928;28;20154;-64
2023/02/14 03:37:41;;;;;;;49.28;35.65;;;7.70;99.90;;;7.94;87.15;103227.22;5095570;28;20059;-64
2023/02/14 03:40:17;;;;;;;49.90;34.42;;;7.60;99.90;;;7.25;87.27;103103.88;5113710;28;20477;-65
2023/02/14 03:42:52;;;;;;;53.13;36.67;;;7.60;99.90;;;7.88;87.86;103224.31;5095723;28;20457;-64
2023/02/14 03:45:28;;;;;;;54.42;36.83;;;7.50;99.90;;;8.01;87.46;103232.84;5095409;28;20159;-64
2023/02/14 03:48:02;;;;;;;54.70;36.95;;;7.60;99.90;;;7.79;88.27;103226.56;5113722;28;20110;-64
2023/02/14 03:50:32;;;;;;;49.67;36.22;;;7.50;99.90;;;7.87;88.22;103222.53;5113697;28;20082;-65
2023/02/14 03:53:03;;;;;;;52.30;36.90;;;7.50;99.90;;;7.79;88.82;103219.56;5113865;28;20047;-65
2023/02/14 03:55:38;;;;;;;54.95;35.70;;;7.50;99.90;;;7.87;88.85;103255.06;5113541;28;20040;-65
2023/02/14 03:58:11;;;;;;;55.67;36.08;;;7.50;99.90;;;8.00;88.36;103222.22;5113541;28;20150;-65
2023/02/14 04:00:42;;;;;;;56.78;37.28;;;7.60;99.90;;;8.05;88.30;103228.63;5113449;28;20044;-65
2023/02/14 04:03:13;;;;;;;49.85;36.00;;;7.70;99.90;;;7.92;88.35;103227.16;5113632;28;20112;-65
2023/02/14 04:05:45;;;;;;;49.00;34.50;;;7.60;99.90;;;7.77;88.87;103215.97;5095455;28;20047;-65
2023/02/14 04:08:21;;;;;;;56.92;36.63;;;7.50;99.90;;;7.75;89.18;103222.88;5095299;28;20043;-64
2023/02/14 04:10:52;;;;;;;52.72;37.15;;;7.40;99.90;;;7.64;89.45;103216.25;5113303;28;20074;-64
2023/02/14 04:13:21;;;;;;;54.75;38.08;;;7.30;99.90;;;7.67;89.46;103229.53;5113295;28;20048;-64
2023/02/14 04:15:49;;;;;;;55.08;36.55;;;7.30;99.90;;;7.66;89.43;103227.75;5113449;28;20046;-66
2023/02/14 04:21:04;;;;;;;56.15;38.33;;;7.30;99.90;;;7.64;89.95;103225.88;5095073;28;20058;-64
2023/02/14 04:23:32;;;;;;;61.90;40.03;;;7.30;99.90;;;7.60;90.09;103216.94;5113100;28;20036;-64
2023/02/14 04:26:03;;;;;;;54.72;37.08;;;7.30;99.90;;;7.70;90.18;103215.63;5113117;28;20039;-64
2023/02/14 04:28:32;;;;;;;53.85;37.45;;;7.30;99.90;;;7.65;89.66;103193.41;5113099;28;20140;-64
2023/02/14 04:31:02;;;;;;;52.95;36.90;;;7.40;99.90;;;7.95;89.85;103214.16;5113024;28;20043;-65
2023/02/14 04:33:32;;;;;;;55.45;37.10;;;7.50;99.90;;;8.16;88.90;103215.06;5113295;28;20044;-64
2023/02/14 04:36:00;;;;;;;53.05;37.90;;;7.70;99.90;;;8.23;88.18;103205.66;5112863;28;20046;-64
2023/02/14 04:38:29;;;;;;;55.72;36.97;;;7.90;99.90;;;8.28;87.78;103205.91;5072496;28;20035;-64
2023/02/14 04:40:57;;;;;;;54.05;38.40;;;7.90;99.90;;;8.23;87.38;103203.94;5072309;28;20044;-64
2023/02/14 04:43:27;;;;;;;54.22;38.20;;;7.80;99.90;;;8.14;87.32;103215.84;5072336;28;20136;-64
2023/02/14 04:45:56;;;;;;;57.00;37.97;;;7.80;99.90;;;7.91;87.83;103214.84;5072368;28;20138;-65
2023/02/14 04:48:24;;;;;;;57.88;39.13;;;7.60;99.90;;;7.87;88.26;103219.91;5072546;28;20388;-64
2023/02/14 04:50:54;;;;;;;51.38;37.05;;;7.50;99.90;;;7.95;88.60;103223.78;5072278;28;20055;-64
2023/02/14 04:53:22;;;;;;;53.85;35.83;;;7.50;99.90;;;8.00;88.24;103196.78;5072546;28;20045;-64
2023/02/14 04:55:51;;;;;;;51.90;35.60;;;7.70;99.90;;;8.18;86.97;103221.31;5072266;28;20041;-64
2023/02/14 04:58:19;;;;;;;53.03;37.72;;;7.80;99.90;;;7.69;85.73;103118.97;5073622;28;20098;-64
2023/02/14 05:00:49;;;;;;;52.17;37.35;;;7.90;99.90;;;8.25;85.50;103224.22;5076179;28;20045;-64
2023/02/14 05:03:17;;;;;;;53.55;36.25;;;8.00;99.90;;;8.32;86.08;103218.38;5076507;28;20047;-64
2023/02/14 05:05:46;;;;;;;57.08;36.58;;;8.00;99.90;;;8.37;85.65;103224.75;5076382;28;20474;-64
2023/02/14 05:08:15;;;;;;;53.70;37.92;;;8.10;99.90;;;8.45;85.70;103220.69;5076655;28;20071;-64
2023/02/14 05:10:43;;;;;;;53.67;35.95;;;8.10;99.90;;;8.39;85.28;103201.97;5076031;28;20036;-65
2023/02/14 05:13:11;;;;;;;46.47;32.58;;;8.20;99.90;;;8.43;84.67;103218.00;5076002;28;20076;-64
2023/02/14 05:15:40;;;;;;;64.20;37.53;;;8.10;99.90;;;8.42;84.67;103221.47;5075920;28;20041;-64
2023/02/14 05:18:09;;;;;;;50.65;36.55;;;8.10;99.90;;;8.39;84.39;103216.06;5075951;28;20040;-64
2023/02/14 05:20:38;;;;;;;48.95;34.75;;;8.10;99.90;;;8.35;84.22;103216.78;5076316;28;20048;-64
2023/02/14 05:23:12;;;;;;;54.50;37.13;;;8.10;99.90;;;8.29;83.81;103219.16;5076102;28;20127;-64
2023/02/14 05:25:40;;;;;;;48.55;35.08;;;8.00;99.90;;;8.06;84.65;103186.50;5075763;28;20085;-64
2023/02/14 05:28:09;;;;;;;52.95;35.65;;;7.90;99.90;;;8.21;85.20;103210.88;5075932;28;20059;-65
2023/02/14 05:30:38;;;;;;;52.08;36.92;;;7.90;99.90;;;8.25;85.51;103211.03;5075641;28;20132;-64
2023/02/14 05:33:08;;;;;;;50.97;35.55;;;7.90;99.90;;;8.15;86.52;103204.44;5075933;28;20049;-64
2023/02/14 05:35:37;;;;;;;47.67;35.20;;;7.80;99.90;;;8.23;86.46;103209.22;5091611;28;20145;-65
2023/02/14 05:38:05;;;;;;;52.65;36.20;;;7.90;99.90;;;8.27;86.12;103212.91;5109952;28;20396;-64
2023/02/14 05:40:33;;;;;;;51.75;36.28;;;7.90;99.90;;;8.14;85.57;103198.28;5115966;28;20481;-64
2023/02/14 05:43:02;;;;;;;49.97;36.50;;;7.80;99.90;;;8.15;85.68;103197.44;5116060;28;20040;-64
2023/02/14 05:45:30;;;;;;;52.15;37.60;;;7.90;99.90;;;8.12;85.57;103199.97;5116155;28;20104;-64
2023/02/14 05:47:58;;;;;;;49.85;36.20;;;7.80;99.90;;;7.95;85.44;103200.06;5115969;28;20511;-64
2023/02/14 05:50:29;;;;;;;55.58;37.15;;;7.70;99.90;;;7.64;86.14;103208.34;5115862;28;20044;-64
2023/02/14 05:52:57;;;;;;;53.08;36.22;;;7.40;99.90;;;7.46;86.96;103212.78;5116195;28;20058;-64
2023/02/14 05:55:26;;;;;;;54.78;38.05;;;7.20;99.90;;;7.27;87.68;103208.41;5115892;28;20123;-64
2023/02/14 05:57:54;;;;;;;56.47;39.08;;;6.90;99.90;;;7.14;88.86;103206.00;5116088;28;20392;-64
2023/02/14 06:00:24;;;;;;;53.40;37.42;;;6.80;99.90;;;6.96;89.66;103206.88;5115776;28;20050;-64
2023/02/14 06:02:52;;;;;;;55.30;38.08;;;6.60;99.90;;;6.83;90.70;103205.38;5115601;28;20448;-64
2023/02/14 06:05:21;;;;;;;57.92;38.17;;;6.50;99.90;;;6.58;91.63;103178.72;5115658;28;20138;-64
2023/02/14 06:07:51;;;;;;;61.33;40.38;;;6.40;99.90;;;6.67;91.92;103199.31;5115592;28;20050;-64
2023/02/14 06:10:22;;;;;;;59.20;39.90;;;6.40;99.90;;;6.78;92.23;103200.72;5115224;28;20097;-64
2023/02/14 06:12:53;;;;;;;55.50;39.33;;;6.40;99.90;;;6.69;92.12;103198.56;5097468;28;20401;-64
2023/02/14 06:15:22;;;;;;;56.90;39.63;;;6.40;99.90;;;6.58;92.55;103201.50;5115744;28;20054;-64
2023/02/14 06:17:55;;;;;;;56.80;39.80;;;6.20;99.90;;;6.50;92.87;103195.88;5115469;28;20057;-64
2023/02/14 06:20:25;;;;;;;62.42;41.85;;;6.20;99.90;;;6.50;93.44;103193.25;5115444;28;20450;-68
2023/02/14 06:22:54;;;;;;;61.87;41.17;;;6.20;99.90;;;6.40;93.69;103183.09;5115287;28;20130;-65
2023/02/14 06:25:24;;;;;;;61.92;42.03;;;6.10;99.90;;;6.42;93.57;103194.59;5115297;28;20135;-65
2023/02/14 06:27:56;;;;;;;59.40;41.15;;;6.20;99.90;;;6.45;93.59;103188.56;5115218;28;20141;-64
2023/02/14 06:30:26;;;;;;;63.67;41.55;;;6.20;99.90;;;6.52;93.66;103196.84;5115473;28;20040;-62
2023/02/14 06:32:54;;;;;;;60.90;41.13;;;6.20;99.90;;;6.52;93.71;103194.22;5115287;28;20047;-64
2023/02/14 06:35:23;;;;;;;63.92;41.75;;;6.20;99.90;;;6.46;93.82;103198.25;5115073;28;20082;-64
2023/02/14 06:37:51;;;;;;;64.22;40.95;;;6.20;99.90;;;6.45;93.92;103196.44;5115292;28;20048;-63
2023/02/14 06:40:21;;;;;;;58.67;40.78;;;6.10;99.90;;;6.49;93.67;103194.06;5114930;28;20118;-64
2023/02/14 06:42:49;;;;;;;60.35;40.75;;;6.20;99.90;;;6.50;93.92;103201.13;5096754;28;20139;-64
2023/02/14 06:45:18;;;;;;;62.90;41.72;;;6.20;99.90;;;6.64;93.60;103194.78;5096841;28;20040;-64
2023/02/14 06:47:46;;;;;;;68.85;42.30;;;6.30;99.90;;;6.77;93.25;103201.56;5114615;28;20035;-65
2023/02/14 06:50:15;;;;;;;63.15;41.90;;;6.40;99.90;;;6.85;92.93;103202.84;5096702;28;20483;-64
2023/02/14 06:52:43;;;;;;;62.25;42.90;;;6.50;99.90;;;6.85;92.51;103213.38;5114946;28;20126;-65
2023/02/14 06:55:12;;;;;;;64.18;42.65;;;6.50;99.90;;;6.90;92.09;103209.22;5114619;28;20063;-65
2023/02/14 06:57:42;;;;;;;62.47;43.03;;;6.60;99.90;;;7.05;91.81;103218.75;5114519;28;20046;-65
2023/02/14 07:00:13;;;;;;;61.53;41.93;;;6.70;99.90;;;7.17;91.15;103216.69;5114556;28;20117;-65
2023/02/14 07:02:42;;;;;;;58.38;39.35;;;6.90;99.90;;;7.31;90.95;103219.97;5114423;28;20047;-65
2023/02/14 07:05:10;;;;;;;58.38;39.42;;;7.00;99.90;;;7.34;90.12;103228.00;5114395;28;20089;-65
2023/02/14 07:07:39;;;;;;;62.92;42.35;;;7.10;99.90;;;7.38;89.63;103229.03;5114284;28;20051;-65
2023/02/14 07:10:08;;;;;;;59.47;41.30;;;7.20;99.90;;;7.46;89.18;103227.66;5096226;28;20043;-65
2023/02/14 07:12:38;;;;;;;60.92;39.67;;;7.20;99.90;;;7.54;89.00;103221.94;5096241;28;20061;-65
2023/02/14 07:15:10;;;;;;;65.63;41.27;;;7.30;99.90;;;7.67;88.81;103228.63;5114125;28;20089;-65
2023/02/14 07:17:39;;;;;;;61.20;41.20;;;7.40;99.90;;;7.72;88.58;103222.78;5114464;28;20371;-65
2023/02/14 07:20:11;;;;;;;63.88;41.00;;;7.50;99.90;;;7.77;88.42;103231.75;5113613;28;20031;-65
2023/02/14 07:22:40;;;;;;;59.53;41.03;;;7.50;99.90;;;7.71;87.46;103239.38;5113715;28;20474;-65
2023/02/14 07:25:09;;;;;;;56.70;40.63;;;7.50;99.90;;;7.82;87.82;103222.31;5113994;28;20040;-65
2023/02/14 07:27:37;;;;;;;57.78;39.92;;;7.50;99.90;;;8.00;88.11;103224.88;5113997;28;20086;-65
2023/02/14 07:30:09;;;;;;;62.00;39.88;;;7.60;99.90;;;7.97;87.46;103195.75;5114231;28;20039;-66
2023/02/14 07:32:38;;;;;;;62.53;41.92;;;7.70;99.90;;;8.36;87.37;103223.88;5113898;28;20062;-65
2023/02/14 07:35:08;;;;;;;65.72;43.08;;;8.00;99.90;;;8.65;87.32;103214.53;5095855;28;20043;-67
2023/02/14 07:37:36;;;;;;;62.38;42.38;;;8.20;99.90;;;8.95;85.84;103221.03;5095531;28;20055;-67
2023/02/14 07:40:07;;;;;;;61.58;42.17;;;8.60;99.90;;;9.15;85.11;103227.09;5113964;28;20044;-67
2023/02/14 07:42:42;;;;;;;59.83;40.10;;;8.80;99.90;;;9.34;83.73;103222.59;5114109;28;20050;-67
2023/02/14 07:45:12;;;;;;;63.20;40.30;;;9.00;99.90;;;9.44;82.72;103215.91;5095609;28;20044;-66
2023/02/14 07:47:51;;;;;;;59.55;39.08;;;9.10;99.90;;;9.61;81.93;103222.72;5114021;28;20047;-66
2023/02/14 07:50:20;;;;;;;64.00;41.05;;;9.30;99.90;;;9.79;81.91;103216.34;5113631;28;20139;-67
2023/02/14 07:52:50;;;;;;;65.03;41.90;;;9.40;99.90;;;9.93;80.30;103228.34;5113581;28;20051;-68
2023/02/14 07:55:19;;;;;;;59.90;40.75;;;9.60;99.90;;;9.94;79.59;103224.88;5113423;28;20043;-68
2023/02/14 07:57:48;;;;;;;56.47;39.55;;;9.60;99.90;;;9.51;79.42;103229.41;5113778;28;20126;-68
2023/02/14 08:00:20;;;;;;;55.17;37.55;;;9.30;99.90;;;9.36;80.49;103231.47;5113680;28;20063;-65
2023/02/14 08:02:48;;;;;;;55.90;37.75;;;9.00;99.90;;;9.35;80.58;103228.78;5095431;28;20072;-66
2023/02/14 08:05:17;;;;;;;57.95;38.58;;;9.00;99.90;;;9.37;80.54;103227.97;5113384;28;20085;-66
2023/02/14 08:07:46;;;;;;;57.55;38.97;;;9.00;99.90;;;9.24;80.56;103204.59;5113278;28;20122;-66
2023/02/14 08:10:15;;;;;;;55.83;39.28;;;9.00;99.90;;;9.28;80.51;103202.94;5095076;28;20047;-66
2023/02/14 08:13:02;;;;;;;55.42;37.72;;;9.00;99.90;;;9.72;80.59;103221.38;5113491;28;20434;-65
2023/02/14 08:18:22;;;;;;;58.90;35.03;;;9.70;99.90;;;10.40;77.35;103216.81;5113741;28;20097;-66
2023/02/14 08:20:51;;;;;;;58.35;37.63;;;10.00;99.90;;;10.41;76.56;103225.66;5095220;28;20085;-66
2023/02/14 08:23:20;;;;;;;51.28;35.13;;;10.10;99.90;;;10.26;76.02;103199.56;5113252;28;20428;-66
2023/02/14 08:25:51;;;;;;;53.97;36.38;;;10.00;99.90;;;10.23;76.15;103225.00;5113104;28;20094;-66
2023/02/14 08:28:20;;;;;;;59.58;36.70;;;9.90;99.90;;;10.33;76.22;103228.03;5113434;28;20047;-67
2023/02/14 08:30:53;;;;;;;55.42;38.42;;;9.90;99.90;;;10.30;75.47;103224.41;5113119;28;20092;-67
2023/02/14 08:33:22;;;;;;;53.45;37.17;;;9.90;99.90;;;9.78;76.99;103179.31;5112886;28;20055;-67
2023/02/14 08:35:52;;;;;;;53.80;38.03;;;9.60;99.90;;;10.20;76.88;103222.28;5112789;28;20043;-67
2023/02/14 08:38:20;;;;;;;56.33;37.83;;;9.80;99.90;;;10.70;76.60;103238.13;5112806;28;20056;-67
2023/02/14 08:40:49;;;;;;;54.95;37.70;;;10.20;99.90;;;11.20;75.48;103227.38;5112923;28;20493;-65
2023/02/14 08:43:18;;;;;;;57.25;37.88;;;10.80;99.90;;;11.36;73.83;103211.06;5112715;28;20051;-66
2023/02/14 08:45:47;;;;;;;60.47;39.90;;;11.10;99.90;;;11.95;72.56;103228.75;5113101;28;20040;-66
2023/02/14 08:48:17;;;;;;;57.05;38.00;;;11.60;99.90;;;11.87;71.24;103157.78;5112768;28;20055;-66
2023/02/14 08:50:45;;;;;;;59.35;38.90;;;11.90;99.90;;;12.51;70.34;103223.19;5113035;28;20036;-66
2023/02/14 08:53:13;;;;;;;53.15;37.17;;;12.20;99.90;;;12.80;69.67;103230.97;5094859;28;20036;-66
2023/02/14 08:55:42;;;;;;;53.30;37.67;;;12.50;99.90;;;13.06;69.11;103230.78;5112741;28;20039;-67
2023/02/14 08:58:10;;;;;;;53.88;38.88;;;12.70;99.90;;;13.31;68.55;103211.88;5112744;28;20138;-67
2023/02/14 09:00:39;;;;;;;57.15;39.60;;;13.10;99.90;;;13.71;67.63;103234.88;5094660;28;20267;-66
2023/02/14 09:03:09;;;;;;;53.08;38.15;;;13.40;99.90;;;13.86;66.56;103229.00;5112617;28;20510;-66
2023/02/14 09:05:39;;;;;;;57.13;38.67;;;13.60;99.90;;;14.12;66.19;103233.03;5113008;28;20371;-66
2023/02/14 09:08:07;;;;;;;51.60;38.10;;;13.80;99.90;;;14.16;65.39;103242.88;5094613;28;20542;-68
2023/02/14 09:10:36;;;;;;;56.67;37.85;;;13.90;99.90;;;14.38;64.91;103238.00;5112629;28;20464;-65
2023/02/14 09:13:06;;;;;;;54.53;39.90;;;14.10;99.90;;;14.47;65.21;103242.59;5112581;28;20058;-65
2023/02/14 09:15:34;;;;;;;52.22;39.08;;;14.20;99.90;;;14.67;64.84;103234.97;5094716;28;20047;-66
2023/02/14 09:18:02;;;;;;;54.60;37.95;;;14.30;99.90;;;14.68;64.09;103237.66;5112406;28;20400;-64
2023/02/14 09:20:31;;;;;;;51.92;38.67;;;14.30;99.90;;;14.97;64.24;103241.69;5112502;28;20043;-66
2023/02/14 09:23:01;;;;;;;52.78;39.33;;;14.60;99.90;;;15.21;63.44;103233.16;5112713;28;20039;-67
2023/02/14 09:25:29;;;;;;;55.63;38.85;;;14.90;99.90;;;15.57;62.17;103239.03;5094489;28;20039;-74
2023/02/14 09:27:57;;;;;;;50.05;37.83;;;15.30;99.90;;;15.85;61.03;103224.25;5112488;28;20036;-66
2023/02/14 09:30:26;;;;;;;52.22;39.13;;;15.50;99.90;;;15.88;60.34;103229.63;5112737;28;20050;-67
2023/02/14 09:32:54;;;;;;;53.40;39.83;;;15.80;99.90;;;16.26;60.47;103239.84;5112403;28;20046;-67
2023/02/14 09:35:23;;;;;;;53.03;39.35;;;16.00;99.90;;;16.36;58.13;103240.81;5112928;28;20066;-67
2023/02/14 09:40:39;;;;;;;54.03;38.53;;;16.30;99.90;;;16.72;56.59;103238.53;5112397;28;20047;-66
2023/02/14 09:43:15;;;;;;;57.57;38.83;;;16.50;99.90;;;16.93;56.19;103238.69;5112878;28;20453;-67
2023/02/14 09:45:51;;;;;;;51.83;37.70;;;16.70;99.90;;;16.51;55.52;103135.91;5116135;28;20318;-67
2023/02/14 09:48:28;;;;;;;50.13;38.38;;;16.90;99.90;;;17.28;54.85;103251.41;5116070;28;20040;-67
2023/02/14 09:51:00;;;;;;;57.50;38.42;;;17.10;99.90;;;17.07;54.25;103234.31;5116089;28;20035;-68
2023/02/14 09:53:32;;;;;;;51.08;38.65;;;17.00;99.90;;;16.88;54.80;103253.78;5116045;28;20489;-67
2023/02/14 09:56:12;;;;;;;51.83;39.67;;;16.80;99.90;;;17.06;55.12;103253.03;5097851;28;20051;-68
2023/02/14 09:58:47;;;;;;;57.60;39.42;;;16.80;99.90;;;17.15;54.80;103245.06;5115945;28;20044;-68
2023/02/14 10:01:24;;;;;;;56.28;39.67;;;16.90;99.90;;;17.12;54.17;103242.38;5116095;28;20079;-67
2023/02/14 10:04:23;;;;;;;50.28;38.58;;;17.00;99.90;;;16.98;54.10;103246.72;5115973;28;20032;-66
2023/02/14 10:06:59;;;;;;;54.30;39.58;;;16.90;99.90;;;17.08;54.46;103244.16;5110000;28;20109;-67
2023/02/14 10:09:49;;;;;;;53.08;39.22;;;16.90;99.90;;;17.00;54.64;103240.53;5115526;28;20413;-66
2023/02/14 10:12:25;;;;;;;52.50;40.30;;;16.90;99.90;;;16.68;54.25;103180.59;5115812;28;20035;-64
2023/02/14 10:14:55;;;;;;;56.28;40.28;;;17.00;99.90;;;17.08;55.19;103237.91;5115783;28;20052;-65
2023/02/14 10:17:31;;;;;;;;;;;16.90;99.90;;;17.13;53.92;103247.72;5116155;28;20122;-67
2023/02/14 10:20:04;;;;;;;56.58;41.90;;;17.10;99.90;;;16.91;54.17;103231.53;5115409;28;20403;-67
2023/02/14 10:22:42;;;;;;;64.35;41.42;;;16.80;99.90;;;17.11;54.88;103230.78;5115370;28;20036;-67
2023/02/14 10:25:21;;;;;;;56.05;41.33;;;16.90;99.90;;;16.64;55.64;103223.31;5115226;28;20512;-68
2023/02/14 10:27:53;;;;;;;57.85;41.38;;;16.60;99.90;;;16.74;55.57;103225.16;5115282;28;20485;-67
2023/02/14 10:30:23;;;;;;;58.60;42.95;;;16.50;99.90;;;16.96;55.31;103238.72;5115316;28;20094;-69
2023/02/14 10:33:05;;;;;;;56.65;42.33;;;16.70;99.90;;;17.37;55.16;103232.72;5115209;28;20580;-69
2023/02/14 10:35:42;;;;;;;57.40;43.80;;;17.10;99.90;;;17.41;54.19;103234.53;5115117;28;20481;-75
2023/02/14 10:38:33;;;;;;;55.47;41.55;;;17.20;99.90;;;17.65;53.80;103224.84;5115246;28;20501;-66
2023/02/14 10:41:23;;;;;;;55.03;41.67;;;17.40;99.90;;;17.35;54.14;103231.81;5115502;28;20128;-67
2023/02/14 10:44:04;;;;;;;59.88;42.55;;;17.20;99.90;;;17.61;53.94;103227.53;5114933;28;20043;-67
2023/02/14 10:46:42;;;;;;;54.83;42.40;;;17.40;99.90;;;17.23;54.47;103216.59;5114933;28;20067;-66
2023/02/14 10:49:31;;;;;;;51.95;41.17;;;17.10;99.90;;;17.46;53.92;103224.75;5114915;28;20130;-66
2023/02/14 10:52:08;;;;;;;55.13;42.25;;;17.20;99.90;;;17.44;53.91;103221.19;5114911;28;20131;-70
2023/02/14 10:54:40;;;;;;;57.88;42.05;;;17.30;99.90;;;17.52;53.55;103219.44;5114818;28;20051;-70
2023/02/14 10:57:16;;;;;;;57.28;41.70;;;17.30;99.90;;;17.83;53.27;103221.34;5115028;28;20086;-69